createdAt,value
2022-08-21T00:01:58.516Z,59.38
2022-08-21T00:04:30.224Z,59.14
2022-08-21T00:06:58.580Z,59.25
2022-08-21T00:09:26.617Z,59.29
2022-08-21T00:11:57.072Z,59.69
2022-08-21T00:14:28.123Z,59.11
2022-08-21T00:17:00.239Z,59.08
2022-08-21T00:19:30.294Z,59.60
2022-08-21T00:21:58.860Z,59.45
2022-08-21T00:24:27.099Z,59.42
2022-08-21T00:26:54.958Z,59.16
2022-08-21T00:29:23.999Z,59.61
2022-08-21T00:31:55.910Z,59.09
2022-08-21T00:34:24.186Z,59.04
2022-08-21T00:36:52.149Z,59.20
2022-08-21T00:39:20.190Z,59.17
2022-08-21T00:41:49.183Z,59.13
2022-08-21T00:44:17.827Z,59.18
2022-08-21T00:46:46.351Z,59.25
2022-08-21T00:49:15.449Z,59.14
2022-08-21T00:51:55.442Z,59.37
2022-08-21T00:54:26.550Z,59.72
2022-08-21T00:56:59.659Z,59.53
2022-08-21T00:59:28.575Z,59.55
2022-08-21T01:01:57.631Z,59.50
2022-08-21T01:04:25.668Z,59.38
2022-08-21T01:06:54.750Z,59.29
2022-08-21T01:09:22.749Z,59.61
2022-08-21T01:11:52.759Z,59.54
2022-08-21T01:14:21.670Z,59.66
2022-08-21T01:16:50.904Z,59.36
2022-08-21T01:19:19.944Z,59.40
2022-08-21T01:21:47.997Z,59.50
2022-08-21T01:24:17.042Z,59.00
2022-08-21T01:26:45.964Z,59.41
2022-08-21T01:29:33.146Z,59.41
2022-08-21T01:32:03.236Z,59.55
2022-08-21T01:34:32.133Z,59.23
2022-08-21T01:37:00.320Z,59.39
2022-08-21T01:39:28.330Z,59.27
2022-08-21T01:41:56.398Z,59.85
2022-08-21T01:44:51.446Z,59.32
2022-08-21T01:47:25.341Z,59.70
2022-08-21T01:49:54.553Z,59.67
2022-08-21T01:52:22.590Z,59.57
2022-08-21T01:54:55.065Z,59.42
2022-08-21T01:57:26.110Z,59.27
2022-08-21T01:59:54.754Z,59.54
2022-08-21T02:02:22.812Z,59.28
2022-08-21T02:04:51.848Z,59.55
2022-08-21T02:07:20.890Z,59.40
2022-08-21T02:09:48.956Z,59.36
2022-08-21T02:12:24.664Z,59.41
2022-08-21T02:14:52.942Z,59.03
2022-08-21T02:17:21.859Z,59.11
2022-08-21T02:19:49.348Z,59.74
2022-08-21T02:22:17.201Z,59.33
2022-08-21T02:24:54.049Z,59.38
2022-08-21T02:27:26.702Z,59.61
2022-08-21T02:29:57.347Z,59.77
2022-08-21T02:32:25.390Z,59.43
2022-08-21T02:34:54.552Z,59.65
2022-08-21T02:37:24.347Z,59.44
2022-08-21T02:39:52.612Z,59.73
2022-08-21T02:42:21.577Z,59.35
2022-08-21T02:44:49.653Z,59.23
2022-08-21T02:47:18.294Z,59.40
2022-08-21T02:49:46.278Z,59.48
2022-08-21T02:52:16.703Z,59.61
2022-08-21T02:54:44.835Z,59.15
2022-08-21T02:57:12.905Z,59.23
2022-08-21T02:59:40.951Z,59.74
2022-08-21T03:02:12.062Z,59.53
2022-08-21T03:04:43.422Z,59.18
2022-08-21T03:07:18.683Z,59.13
2022-08-21T03:09:55.887Z,59.39
2022-08-21T03:12:29.969Z,59.89
2022-08-21T03:15:00.250Z,59.32
2022-08-21T03:17:29.684Z,59.79
2022-08-21T03:19:58.321Z,59.45
2022-08-21T03:22:27.236Z,59.50
2022-08-21T03:24:56.411Z,59.36
2022-08-21T03:27:23.795Z,59.64
2022-08-21T03:29:52.512Z,59.57
2022-08-21T03:32:22.775Z,59.55
2022-08-21T03:34:51.147Z,58.97
2022-08-21T03:37:19.665Z,59.35
2022-08-21T03:39:47.749Z,59.18
2022-08-21T03:42:15.750Z,59.78
2022-08-21T03:44:44.166Z,59.21
2022-08-21T03:47:12.610Z,59.10
2022-08-21T03:49:40.154Z,59.21
2022-08-21T03:52:08.066Z,59.28
2022-08-21T03:54:36.019Z,59.10
2022-08-21T03:57:04.064Z,59.25
2022-08-21T03:59:32.100Z,59.59
2022-08-21T04:02:02.225Z,59.39
2022-08-21T04:04:32.211Z,59.32
2022-08-21T04:07:00.305Z,59.37
2022-08-21T04:09:29.309Z,59.05
2022-08-21T04:11:57.353Z,59.43
2022-08-21T04:14:27.406Z,59.63
2022-08-21T04:16:56.294Z,59.36
2022-08-21T04:19:25.498Z,59.32
2022-08-21T04:21:53.554Z,59.42
2022-08-21T04:24:21.601Z,59.31
2022-08-21T04:26:51.501Z,59.56
2022-08-21T04:29:21.683Z,59.05
2022-08-21T04:31:50.753Z,58.90
2022-08-21T04:34:18.777Z,59.31
2022-08-21T04:36:47.837Z,59.61
2022-08-21T04:39:15.875Z,59.05
2022-08-21T04:41:43.920Z,59.00
2022-08-21T04:44:12.638Z,59.45
2022-08-21T04:46:42.155Z,59.31
2022-08-21T04:49:13.074Z,59.31
2022-08-21T04:51:41.747Z,59.56
2022-08-21T04:54:13.991Z,59.43
2022-08-21T04:56:52.215Z,59.04
2022-08-21T04:59:24.972Z,59.45
2022-08-21T05:01:52.668Z,59.18
2022-08-21T05:04:22.210Z,59.14
2022-08-21T05:06:50.404Z,59.14
2022-08-21T05:09:20.360Z,58.89
2022-08-21T05:11:49.519Z,59.22
2022-08-21T05:14:18.559Z,59.23
2022-08-21T05:16:46.607Z,59.31
2022-08-21T05:19:16.665Z,58.93
2022-08-21T05:21:46.726Z,59.45
2022-08-21T05:24:15.748Z,59.12
2022-08-21T05:26:46.669Z,59.04
2022-08-21T05:29:19.138Z,58.98
2022-08-21T05:31:47.903Z,59.04
2022-08-21T05:34:17.109Z,58.71
2022-08-21T05:36:47.019Z,58.92
2022-08-21T05:39:15.061Z,58.74
2022-08-21T05:41:43.089Z,58.96
2022-08-21T05:44:11.414Z,59.06
2022-08-21T05:46:40.230Z,58.80
2022-08-21T05:49:08.258Z,58.92
2022-08-21T05:51:38.273Z,59.10
2022-08-21T05:54:06.377Z,58.98
2022-08-21T05:56:35.402Z,58.96
2022-08-21T05:59:03.468Z,58.95
2022-08-21T06:01:38.597Z,58.79
2022-08-21T06:04:07.068Z,58.94
2022-08-21T06:06:35.599Z,59.04
2022-08-21T06:09:04.660Z,58.88
2022-08-21T06:11:34.702Z,58.86
2022-08-21T06:14:02.487Z,58.93
2022-08-21T06:16:31.818Z,59.12
2022-08-21T06:19:02.924Z,58.83
2022-08-21T06:21:31.887Z,58.55
2022-08-21T06:24:00.958Z,58.92
2022-08-21T06:26:30.002Z,58.49
2022-08-21T06:28:58.055Z,58.79
2022-08-21T06:31:27.122Z,58.43
2022-08-21T06:33:55.146Z,58.63
2022-08-21T06:36:23.372Z,58.47
2022-08-21T06:38:51.872Z,58.39
2022-08-21T06:41:44.387Z,58.51
2022-08-21T06:44:13.360Z,58.15
2022-08-21T06:46:41.413Z,58.65
2022-08-21T06:49:15.626Z,58.35
2022-08-21T06:51:53.349Z,58.37
2022-08-21T06:54:21.291Z,58.55
2022-08-21T06:56:50.830Z,58.49
2022-08-21T06:59:20.362Z,58.01
2022-08-21T07:01:48.857Z,58.32
2022-08-21T07:04:18.975Z,58.26
2022-08-21T07:06:48.147Z,58.83
2022-08-21T07:09:18.692Z,58.39
2022-08-21T07:11:50.176Z,58.78
2022-08-21T07:14:20.111Z,58.52
2022-08-21T07:16:50.017Z,58.50
2022-08-21T07:19:18.056Z,58.73
2022-08-21T07:21:49.388Z,58.95
2022-08-21T07:24:18.674Z,58.79
2022-08-21T07:26:47.204Z,59.01
2022-08-21T07:29:15.273Z,59.28
2022-08-21T07:31:45.316Z,59.31
2022-08-21T07:34:13.370Z,59.01
2022-08-21T07:36:42.426Z,59.30
2022-08-21T07:39:10.460Z,58.97
2022-08-21T07:41:40.527Z,58.88
2022-08-21T07:44:09.587Z,58.90
2022-08-21T07:46:43.647Z,59.04
2022-08-21T07:49:12.262Z,59.04
2022-08-21T07:51:41.718Z,59.26
2022-08-21T07:54:11.332Z,58.88
2022-08-21T07:56:46.800Z,59.08
2022-08-21T07:59:15.869Z,59.42
2022-08-21T08:01:43.971Z,59.38
2022-08-21T08:04:14.829Z,59.58
2022-08-21T08:06:43.741Z,59.45
2022-08-21T08:09:12.097Z,59.40
2022-08-21T08:11:49.101Z,59.60
2022-08-21T08:14:19.162Z,59.56
2022-08-21T08:17:26.432Z,59.67
2022-08-21T08:20:05.476Z,59.92
2022-08-21T08:22:43.314Z,59.19
2022-08-21T08:26:07.382Z,59.45
2022-08-21T08:29:34.763Z,59.38
2022-08-21T08:32:08.388Z,59.32
2022-08-21T08:37:45.968Z,55.84
2022-08-21T08:43:22.565Z,55.41
2022-08-21T08:49:22.843Z,55.42
2022-08-21T08:53:02.820Z,55.83
2022-08-21T08:56:21.521Z,55.48
2022-08-21T09:01:39.202Z,55.25
2022-08-21T09:04:31.935Z,55.47
2022-08-21T09:07:43.250Z,54.66
2022-08-21T09:11:14.241Z,54.75
2022-08-21T09:14:08.582Z,54.03
2022-08-21T09:17:21.469Z,54.22
2022-08-21T09:20:48.001Z,54.40
2022-08-21T09:23:55.279Z,54.94
2022-08-21T09:26:44.104Z,54.07
2022-08-21T16:51:33.784Z,59.00
2022-08-21T16:54:27.541Z,59.34
2022-08-21T17:00:11.733Z,59.23
2022-08-21T17:03:00.180Z,59.41
2022-08-21T17:11:56.611Z,58.84
2022-08-21T17:15:04.681Z,59.42
2022-08-21T17:18:02.714Z,59.45
2022-08-21T17:20:53.895Z,57.72
2022-08-21T17:23:43.283Z,58.33
2022-08-21T17:26:41.154Z,59.16
2022-08-21T17:29:33.112Z,57.94
2022-08-21T17:32:05.699Z,58.06
2022-08-21T17:34:32.942Z,58.67
2022-08-21T17:37:00.727Z,58.49
2022-08-21T17:39:27.915Z,58.90
2022-08-21T17:41:57.907Z,58.69
2022-08-21T17:44:25.579Z,59.34
2022-08-21T17:46:52.790Z,58.97
2022-08-21T17:49:23.882Z,58.85
2022-08-21T17:51:54.133Z,58.96
2022-08-21T17:54:21.354Z,59.29
2022-08-21T17:56:48.633Z,59.27
2022-08-21T17:59:27.159Z,59.44
2022-08-21T18:02:09.877Z,59.25
2022-08-21T18:05:07.919Z,58.84
2022-08-21T18:07:35.247Z,59.10
2022-08-21T18:10:07.511Z,59.35
2022-08-21T18:12:41.169Z,59.39
2022-08-21T18:15:10.750Z,59.18
2022-08-21T18:17:38.096Z,59.67
2022-08-21T18:20:07.262Z,60.16
2022-08-21T18:22:34.483Z,60.38
2022-08-21T18:25:01.666Z,60.56
2022-08-21T18:27:29.829Z,60.43
2022-08-21T18:30:00.167Z,60.68
2022-08-21T18:32:30.719Z,60.77
2022-08-21T18:34:58.763Z,60.97
2022-08-21T18:37:25.856Z,60.91
2022-08-21T18:39:53.171Z,60.93
2022-08-21T18:42:28.710Z,61.09
2022-08-21T18:44:58.080Z,60.92
2022-08-21T18:47:29.160Z,60.62
2022-08-21T18:49:56.804Z,61.35
2022-08-21T18:55:13.479Z,61.66
2022-08-21T18:57:46.560Z,61.84
2022-08-21T19:00:19.932Z,62.01
2022-08-21T19:02:47.485Z,61.40
2022-08-21T19:05:16.107Z,62.22
2022-08-21T19:07:45.373Z,62.17
2022-08-21T19:10:28.293Z,61.89
2022-08-21T19:12:58.155Z,62.04
2022-08-21T19:15:28.819Z,61.96
2022-08-21T19:18:03.807Z,62.23
2022-08-21T19:20:35.064Z,61.44
2022-08-21T19:23:03.758Z,61.98
2022-08-21T19:25:33.831Z,61.59
2022-08-21T19:31:16.375Z,61.87
2022-08-21T19:33:46.241Z,62.44
2022-08-21T19:36:18.365Z,62.44
2022-08-21T19:38:48.202Z,62.25
2022-08-21T19:41:16.450Z,62.16
2022-08-21T19:43:45.516Z,62.18
2022-08-21T19:46:13.194Z,62.02
2022-08-21T19:51:29.509Z,62.05
2022-08-21T19:53:57.413Z,62.32
2022-08-21T19:56:27.819Z,62.12
2022-08-21T19:58:56.395Z,62.09
2022-08-21T20:01:26.011Z,62.16
2022-08-21T20:03:54.682Z,61.82
2022-08-21T20:06:23.938Z,62.18
2022-08-21T20:08:58.082Z,61.99
2022-08-21T20:11:31.753Z,61.69
2022-08-21T20:14:00.638Z,60.63
2022-08-21T20:16:28.373Z,61.51
2022-08-21T20:18:55.606Z,60.67
2022-08-21T20:21:22.877Z,60.31
2022-08-21T20:23:50.171Z,60.56
2022-08-21T20:26:18.980Z,60.44
2022-08-21T20:28:46.502Z,60.86
2022-08-21T20:31:20.000Z,61.16
2022-08-21T20:33:49.476Z,60.51
2022-08-21T20:36:17.586Z,60.73
2022-08-21T20:38:44.807Z,61.36
2022-08-21T20:41:21.178Z,61.43
2022-08-21T20:43:48.856Z,61.35
2022-08-21T20:46:22.371Z,61.64
2022-08-21T20:48:50.041Z,61.48
2022-08-21T20:51:28.302Z,62.31
2022-08-21T20:54:37.059Z,61.13
2022-08-21T20:57:04.203Z,61.73
2022-08-21T20:59:34.040Z,61.86
2022-08-21T21:02:16.417Z,62.48
2022-08-21T21:04:55.985Z,62.74
2022-08-21T21:07:35.094Z,63.08
2022-08-21T21:10:04.699Z,62.70
2022-08-21T21:12:34.803Z,62.46
2022-08-21T21:15:14.653Z,63.04
2022-08-21T21:17:47.905Z,63.51
2022-08-21T21:20:19.983Z,62.64
2022-08-21T21:22:53.869Z,62.84
2022-08-21T21:25:40.449Z,62.85
2022-08-21T21:28:12.859Z,62.53
2022-08-21T21:30:46.489Z,61.98
2022-08-21T21:33:17.086Z,62.54
2022-08-21T21:35:49.126Z,62.46
2022-08-21T21:38:24.001Z,62.64
2022-08-21T21:41:01.537Z,62.30
2022-08-21T21:44:06.037Z,62.27
2022-08-21T21:46:46.157Z,62.71
2022-08-21T21:49:27.362Z,63.11
2022-08-21T21:52:31.965Z,63.25
2022-08-21T22:02:01.128Z,63.26
2022-08-21T22:05:00.333Z,63.38
2022-08-21T22:07:55.003Z,63.39
2022-08-21T22:10:34.030Z,63.41
2022-08-21T22:13:26.147Z,63.61
2022-08-21T22:15:54.837Z,64.20
2022-08-21T22:18:26.136Z,63.80
2022-08-21T22:21:10.725Z,64.07
2022-08-21T22:23:49.521Z,64.29
2022-08-21T22:26:32.203Z,64.28
2022-08-21T22:29:04.954Z,64.45
2022-08-21T22:31:38.541Z,65.01
2022-08-21T22:34:19.778Z,64.48
2022-08-21T22:36:54.643Z,64.75
2022-08-21T22:39:36.054Z,64.60
2022-08-21T22:42:23.432Z,64.58
2022-08-21T22:45:04.780Z,64.45
2022-08-21T22:48:05.865Z,64.48
2022-08-21T22:50:48.171Z,64.35
2022-08-21T22:53:26.544Z,64.88
2022-08-21T22:55:55.696Z,64.53
2022-08-21T22:58:35.375Z,64.76
2022-08-21T23:01:33.715Z,64.81
2022-08-21T23:04:16.481Z,64.77
2022-08-21T23:06:56.063Z,64.40
2022-08-21T23:09:36.639Z,64.41
2022-08-21T23:12:24.402Z,64.33
2022-08-21T23:15:03.289Z,64.65
2022-08-21T23:17:44.513Z,64.38
2022-08-21T23:20:56.374Z,64.45
2022-08-21T23:23:35.391Z,64.47
2022-08-21T23:30:00.370Z,64.48
2022-08-21T23:32:40.779Z,64.22
2022-08-21T23:35:15.792Z,64.25
2022-08-21T23:37:54.192Z,64.76
2022-08-21T23:43:38.970Z,64.40
2022-08-21T23:46:33.612Z,64.50
2022-08-21T23:49:25.540Z,64.63
2022-08-21T23:52:14.676Z,64.47
2022-08-21T23:55:20.848Z,64.28
2022-08-21T23:58:06.061Z,64.42
